• Join FlightAware (Why Join?)
  • Login
  • US Flag 
09:19PM EDT


 

Airport Tracker/Info


-or-


 

Live Flight TrackerFlight Track Log ✈ UAL4086 ✈ 19-Apr-2013 ✈ KIAH - KSAT

Flight Track Log - Related Links

Times and Time Zones

All times are in EDT time to prevent confusion due to time zone crossing. See the UAL4086 flight status page for this flight to view local times or setup timezone preferences in your user account.

Time Position Orientation Groundspeed Altitude Reporting Facility
EDT Latitude Longitude Course Direction KTS MPH feet Rate Location/Type
10:12AM 29.9794 -95.3536 247° West 140 161 700  Level Houston Center
10:13AM 29.9819 -95.4039 273° West 212 244 2,400 2,040 Climbing Houston Center
10:14AM 29.9753 -95.4775 264° West 234 269 4,900 2,340 Climbing Houston Center
10:15AM 29.8855 -95.6258 252° West  Level FlightAware Approximate
10:15AM 29.9661 -95.5536 262° West 241 277 7,500  Level Houston Center
10:16AM 29.8533 -95.7235 249° West  Level FlightAware Approximate
10:16AM 29.9394 -95.6406 251° West 238 274 10,800  Level Houston Center
10:17AM 29.8198 -95.8206 247° West  Level FlightAware Approximate
10:17AM 29.9172 -95.7150 251° West 245 282 12,200  Level Houston Center
10:18AM 29.8911 -95.8003 251° West 275 316 14,000 1,800 Climbing Houston Center
10:19AM 29.8678 -95.8836 252° West 275 316 16,000 1,860 Climbing Houston Center
10:20AM 29.8431 -95.9647 251° West 272 313 17,900 1,560 Climbing Houston Center
10:21AM 29.8183 -96.0469 251° West 257 296 19,300 1,140 Climbing Houston Center
10:22AM 29.7958 -96.1247 252° West 256 295 20,300 1,020 Climbing Houston Center
10:23AM 29.7825 -96.2269 261° West 282 325 21,500 1,020 Climbing Houston Center
10:24AM 29.7897 -96.3225 275° West 300 345 22,500 960 Climbing Houston Center
10:25AM 29.7967 -96.4228 275° West 314 361 23,500 960 Climbing Houston Center
10:26AM 29.8044 -96.5269 275° West 326 375 24,500 900 Climbing Houston Center
10:27AM 29.8128 -96.6317 275° West 330 380 25,400 720 Climbing Houston Center
10:28AM 29.8203 -96.7367 275° West 331 381 26,000 240 Climbing Houston Center
10:29AM 29.8303 -96.8683 275° West 347 399 26,000  Level Houston Center
10:30AM 29.8378 -96.9817 274° West 356 410 26,000 -240 Level Houston Center
10:31AM 29.8461 -97.0983 275° West 366 421 25,600 -1,020 Descending Houston Center
10:32AM 29.8542 -97.2128 275° West 362 417 24,000 -1,260 Descending Houston Center
10:33AM 29.8633 -97.3539 274° West 371 427 23,100 -2,040 Descending Houston Center
10:34AM 29.8714 -97.4681 275° West 360 414 19,800 -3,180 Descending Houston Center
10:36AM 29.8794 -97.5989 274° West 340 391 16,000 -3,300 Descending Houston Center
10:36AM 29.8836 -97.6633 274° West 332 382 13,900 -3,240 Descending Houston Center
10:37AM 29.8867 -97.6953 276° West 331 381 13,200 -900 Descending Houston Center
10:37AM 29.8906 -97.7758 273° West 323 372 13,000 -240 Descending Houston Center
10:38AM 29.8928 -97.7989 276° West 325 374 13,000  Level Houston Center
10:38AM 29.8925 -97.8625 270° West 327 376 13,000  Level Houston Center
10:39AM 29.8797 -97.9014 249° West 335 386 13,000 -360 Level Houston Center
10:39AM 29.8506 -97.9739 245° Southwest 326 375 12,600 -720 Descending Houston Center
10:40AM 29.8389 -97.9997 243° Southwest 313 360 12,300 -1,200 Descending Houston Center
10:40AM 29.8200 -98.0475 246° West 265 305 11,500 -1,500 Descending Houston Center
10:41AM 29.8075 -98.0747 242° Southwest 262 302 10,800 -1,980 Descending Houston Center
10:41AM 29.7906 -98.1139 244° Southwest 246 283 9,700 -2,040 Descending Houston Center
10:42AM 29.7742 -98.1525 244° Southwest 252 290 8,700 -1,920 Descending Houston Center
10:42AM 29.7594 -98.1875 244° Southwest 250 288 7,800 -1,980 Descending Houston Center
10:43AM 29.7436 -98.2250 244° Southwest 252 290 6,700 -1,920 Descending Houston Center
10:43AM 29.7192 -98.2503 222° Southwest 264 304 5,900 -1,680 Descending Houston Center
10:44AM 29.6728 -98.2608 191° South 272 313 5,000 -840 Descending Houston Center
10:44AM 29.6369 -98.2697 192° South 282 325 5,000  Level Houston Center
10:45AM 29.5947 -98.2828 195° South 286 329 5,000 -120 Level Houston Center
10:45AM 29.5572 -98.2917 192° South 295 339 4,900 -540 Descending Houston Center
10:46AM 29.5175 -98.3042 195° South 285 328 4,500 -420 Descending Houston Center
10:46AM 29.4836 -98.3125 192° South 273 314 4,500 -1,020 Level Houston Center
10:47AM 29.4453 -98.3392 211° Southwest 269 310 3,500 -1,740 Descending Houston Center
10:47AM 29.4414 -98.3561 255° West 249 287 3,100 -1,500 Descending Houston Center